BID Airport (Block Island State) Information

FAA: BID - ICAO: KBID

BID Airport Location

State Rhode Island
County Washington
City Block Island
BID Airport is 1 mile west of Block Island, RI.
Latitude 41-10-05.2000N
Longitude 071-34-40.2000W
Elevation 107ft

KBID Airport METARs

METAR KBID 251556Z AUTO 20014KT 10SM CLR 20/17 A2998 RMK AO2 SLP154 T02000172
Altimeter 29.98"
Temperature 20.0°C (68.0°F)
Wind 200° at 14KT
Clouds Skies are clear.
Visibility 10.0mi
Time observed: 2021-10-25T15:56:00Z

BID Airport Details

Status Operational
Activation June 1950
Ownership Public
Usage Public
Chart NEW YORK
ATC on-site No
Beacon schedule sunset-sunrise
Beacon color clear green

BID Airport Contacts

Owner STATE OF RHODE ISLAND
Owner address RI AIRPORT CORPORATION, 2000 POST RD, WARWICK, RI 02886
Owner phone 401-691-2227
Manager WILLIAM K. POUST
Manager address RD 2, P.O. BOX 575, MONTGOMERY, PA 17752
Manager phone N/A

BID Airport (Block Island State) Radio Frequencies

BID (Airport) Radio Frequencies

UNICOM 123
Common traffic advisory frequency (CTAF) 123